Time;durP1;ratioP1;P1;durP2;ratioP2;P2;SDS_P1;SDS_P2;PMS_P1;PMS_P2;Temp;Humidity;BMP_temperature;BMP_pressure;BME280_temperature;BME280_humidity;BME280_pressure;Samples;Min_cycle;Max_cycle;Signal;HPM_P1;HPM_P2
2023/07/10 00:00:19;;;;;;;3.50;2.60;;;;;;;21.52;100.00;101713.56;2081494;28;20505;-61
2023/07/10 00:01:22;;;;;;;4.67;2.67;;;;;;;21.48;100.00;101718.59;2081355;28;20463;-62
2023/07/10 00:02:22;;;;;;;4.10;2.30;;;;;;;21.43;100.00;101714.41;2080870;28;20862;-62
2023/07/10 00:03:22;;;;;;;5.40;2.47;;;;;;;21.45;100.00;101714.69;2081490;28;20451;-61
2023/07/10 00:04:23;;;;;;;4.27;2.30;;;;;;;21.08;100.00;101657.00;2089193;28;20188;-61
2023/07/10 00:05:24;;;;;;;2.87;2.20;;;;;;;21.44;100.00;101710.31;2081197;28;20188;-62
2023/07/10 00:06:24;;;;;;;2.60;2.20;;;;;;;21.44;100.00;101718.00;2081369;28;20240;-62
2023/07/10 00:07:24;;;;;;;4.37;2.40;;;;;;;21.39;100.00;101704.56;2081571;28;20277;-61
2023/07/10 00:08:26;;;;;;;6.33;2.57;;;;;;;21.42;100.00;101712.06;2081316;28;20266;-61
2023/07/10 00:09:26;;;;;;;4.47;2.43;;;;;;;21.40;100.00;101712.53;2079854;28;20592;-62
2023/07/10 00:10:29;;;;;;;5.67;2.70;;;;;;;21.42;100.00;101715.66;2081469;28;20427;-62
2023/07/10 00:11:30;;;;;;;6.70;3.23;;;;;;;21.41;100.00;101724.59;2081477;28;20177;-62
2023/07/10 00:12:31;;;;;;;7.40;2.77;;;;;;;21.39;100.00;101719.44;2080476;28;20455;-61
2023/07/10 00:13:31;;;;;;;4.97;2.80;;;;;;;21.41;100.00;101724.59;2081620;28;20427;-62
2023/07/10 00:14:34;;;;;;;6.20;2.83;;;;;;;21.42;100.00;101720.50;2080996;28;20262;-61
2023/07/10 00:15:35;;;;;;;4.93;2.80;;;;;;;21.38;100.00;101703.78;2081437;28;20188;-61
2023/07/10 00:16:35;;;;;;;7.30;3.00;;;;;;;21.05;100.00;101657.97;2081301;28;20526;-61
2023/07/10 00:17:35;;;;;;;5.30;2.40;;;;;;;21.40;100.00;101717.41;2081563;28;20193;-61
2023/07/10 00:18:36;;;;;;;6.97;3.07;;;;;;;21.39;100.00;101707.41;2080896;28;20193;-61
2023/07/10 00:19:36;;;;;;;8.10;3.20;;;;;;;21.39;100.00;101707.41;2080622;28;20800;-62
2023/07/10 00:20:37;;;;;;;11.40;3.10;;;;;;;21.37;100.00;101710.69;2080705;28;20683;-62
2023/07/10 00:21:38;;;;;;;6.07;3.30;;;;;;;21.39;100.00;101715.84;2072923;28;20647;-62
2023/07/10 00:22:38;;;;;;;42.33;7.17;;;;;;;20.64;100.00;101618.59;2073103;28;20845;-61
2023/07/10 00:23:38;;;;;;;27.60;6.43;;;;;;;21.18;100.00;101705.66;2079832;28;20189;-62
2023/07/10 00:24:39;;;;;;;19.97;4.90;;;;;;;21.21;100.00;101707.50;2081341;28;20197;-61
2023/07/10 00:25:40;;;;;;;19.53;4.17;;;;;;;21.18;100.00;101716.94;2081340;28;20219;-61
2023/07/10 00:26:42;;;;;;;14.87;3.73;;;;;;;21.16;100.00;101716.63;2081292;28;20217;-62
2023/07/10 00:27:49;;;;;;;13.97;3.60;;;;;;;20.80;100.00;101661.22;2081187;28;20439;-61
2023/07/10 00:28:52;;;;;;;10.33;3.27;;;;;;;20.71;100.00;101650.00;2080575;28;20506;-62
2023/07/10 00:29:52;;;;;;;9.27;3.60;;;;;;;20.99;100.00;101707.78;2081223;28;20510;-62
2023/07/10 00:30:53;;;;;;;13.70;3.87;;;;;;;20.94;100.00;101710.50;2080389;28;20434;-61
2023/07/10 00:31:53;;;;;;;6.10;3.07;;;;;;;20.89;100.00;101699.84;2081229;28;20173;-62
2023/07/10 00:32:54;;;;;;;8.80;3.53;;;;;;;20.36;100.00;101623.56;2081191;28;20192;-61
2023/07/10 00:33:54;;;;;;;8.27;3.60;;;;;;;20.86;100.00;101706.41;2081295;28;20196;-61
2023/07/10 00:34:55;;;;;;;9.23;3.63;;;;;;;20.47;100.00;101652.00;2081109;28;20209;-62
2023/07/10 00:35:55;;;;;;;8.43;3.30;;;;;;;20.76;100.00;101702.88;2081283;28;20193;-61
2023/07/10 00:36:56;;;;;;;5.20;2.70;;;;;;;20.44;100.00;101675.47;2080379;28;20192;-62
2023/07/10 00:38:02;;;;;;;7.73;3.17;;;;;;;20.72;100.00;101712.78;2080108;28;20192;-61
2023/07/10 00:39:28;;;;;;;6.03;2.73;;;;;;;20.75;100.00;101706.97;2074078;28;20186;-61
2023/07/10 00:40:31;;;;;;;5.00;2.90;;;;;;;20.77;100.00;101712.88;2081104;28;20439;-61
2023/07/10 00:41:35;;;;;;;4.30;2.70;;;;;;;20.73;100.00;101698.19;2081170;28;20951;-61
2023/07/10 00:42:35;;;;;;;6.07;3.27;;;;;;;20.77;100.00;101709.31;2080754;28;20420;-61
2023/07/10 00:43:44;;;;;;;6.80;2.73;;;;;;;20.77;100.00;101718.53;2079754;28;20707;-61
2023/07/10 00:44:51;;;;;;;6.27;3.00;;;;;;;20.78;100.00;101716.50;2074100;28;20758;-61
2023/07/10 00:45:52;;;;;;;5.30;2.67;;;;;;;20.28;100.00;101652.53;2079871;28;20446;-61
2023/07/10 00:46:56;;;;;;;5.17;3.00;;;;;;;20.65;100.00;101711.06;2072939;28;21001;-61
2023/07/10 00:48:29;;;;;;;2.97;2.40;;;;;;;20.60;100.00;101711.72;2081432;28;20292;-61
2023/07/10 00:50:13;;;;;;;28.03;4.83;;;;;;;20.45;100.00;101716.47;2078485;28;20452;-62
2023/07/10 00:51:23;;;;;;;11.60;3.67;;;;;;;20.40;100.00;101713.50;2081300;28;20204;-61
2023/07/10 00:52:42;;;;;;;11.27;3.60;;;;;;;20.34;100.00;101723.84;2080339;28;20953;-64
2023/07/10 00:53:46;;;;;;;18.40;4.00;;;;;;;19.90;100.00;101667.16;2073141;28;20411;-64
2023/07/10 00:54:51;;;;;;;16.30;4.20;;;;;;;20.31;100.00;101713.53;2072920;28;20470;-64
2023/07/10 00:55:54;;;;;;;11.40;3.80;;;;;;;20.31;100.00;101717.13;2080952;28;20192;-61
2023/07/10 00:56:56;;;;;;;12.63;5.17;;;;;;;20.26;100.00;101712.13;2074882;28;20432;-61
2023/07/10 00:58:16;;;;;;;16.10;3.70;;;;;;;20.24;100.00;101714.66;2080951;28;20466;-61
2023/07/10 00:59:26;;;;;;;16.00;4.50;;;;;;;20.23;100.00;101713.09;2073068;28;20474;-62
2023/07/10 01:00:27;;;;;;;19.63;4.20;;;;;;;19.70;100.00;101632.34;2080788;28;20471;-62
2023/07/10 01:01:29;;;;;;;17.20;4.60;;;;;;;20.20;100.00;101716.84;2080966;28;20444;-62
2023/07/10 01:02:30;;;;;;;12.43;4.23;;;;;;;19.87;100.00;101662.47;2080547;28;20975;-61
2023/07/10 01:03:32;;;;;;;11.23;4.23;;;;;;;19.84;100.00;101680.28;2081066;28;20895;-61
2023/07/10 01:04:39;;;;;;;12.07;3.67;;;;;;;19.78;100.00;101670.13;2077089;28;20224;-61
2023/07/10 01:05:40;;;;;;;12.47;3.70;;;;;;;20.13;100.00;101717.16;2076395;28;20432;-62
2023/07/10 01:06:40;;;;;;;9.97;3.13;;;;;;;20.15;100.00;101717.47;2080311;28;20486;-61
2023/07/10 01:07:56;;;;;;;12.40;4.00;;;;;;;20.17;100.00;101717.78;2079786;28;20173;-62
2023/07/10 01:09:03;;;;;;;7.80;3.77;;;;;;;19.46;100.00;101623.78;2074511;28;20657;-62
2023/07/10 01:10:07;;;;;;;13.43;3.83;;;;;;;20.14;100.00;101723.56;2080886;28;20427;-61
2023/07/10 01:11:08;;;;;;;13.10;4.10;;;;;;;20.13;100.00;101724.81;2080993;28;20880;-62
2023/07/10 01:12:08;;;;;;;21.70;4.60;;;;;;;20.14;100.00;101721.53;2080413;28;20434;-61
2023/07/10 01:13:09;;;;;;;15.07;3.80;;;;;;;19.98;100.00;101692.94;2081140;28;20173;-62
2023/07/10 01:14:10;;;;;;;13.87;3.97;;;;;;;20.06;100.00;101708.25;2080874;28;20276;-61
2023/07/10 01:15:11;;;;;;;11.03;3.43;;;;;;;20.15;100.00;101720.28;2080825;28;20204;-61
2023/07/10 01:16:12;;;;;;;10.73;3.20;;;;;;;19.58;100.00;101622.81;2080963;28;20570;-62
2023/07/10 01:17:13;;;;;;;11.67;3.30;;;;;;;20.18;100.00;101713.72;2080967;28;20427;-62
2023/07/10 01:18:14;;;;;;;8.90;3.43;;;;;;;19.89;100.00;101670.44;2080902;28;20208;-62
2023/07/10 01:19:22;;;;;;;8.03;2.93;;;;;;;20.21;100.00;101714.81;2080299;28;20177;-62
2023/07/10 01:20:46;;;;;;;7.00;3.20;;;;;;;20.18;100.00;101716.53;2080232;28;20447;-61
2023/07/10 01:21:47;;;;;;;6.00;3.30;;;;;;;19.66;100.00;101635.28;2080333;28;20424;-61
2023/07/10 01:22:47;;;;;;;6.27;3.20;;;;;;;20.20;100.00;101721.66;2080796;28;20475;-61
2023/07/10 01:23:48;;;;;;;6.43;3.20;;;;;;;20.20;100.00;101722.47;2080819;28;20180;-61
2023/07/10 01:24:52;;;;;;;8.03;3.07;;;;;;;20.16;100.00;101719.03;2079906;28;20173;-61
2023/07/10 01:26:00;;;;;;;4.83;3.17;;;;;;;20.18;100.00;101722.16;2080887;28;20176;-61
2023/07/10 01:27:01;;;;;;;5.03;2.73;;;;;;;20.21;100.00;101717.63;2081007;28;20456;-62
2023/07/10 01:28:09;;;;;;;5.33;3.20;;;;;;;20.08;100.00;101695.28;2081047;28;20815;-61
2023/07/10 01:29:24;;;;;;;5.43;2.90;;;;;;;20.28;100.00;101717.28;2080576;28;20439;-61
2023/07/10 01:30:33;;;;;;;6.03;2.90;;;;;;;20.27;100.00;101719.31;2072887;28;20416;-61
2023/07/10 01:31:33;;;;;;;5.93;3.03;;;;;;;20.31;100.00;101717.13;2072942;28;20417;-62
2023/07/10 01:32:34;;;;;;;5.90;2.87;;;;;;;20.30;100.00;101715.56;2080140;28;20437;-61
2023/07/10 01:33:39;;;;;;;5.27;3.07;;;;;;;20.30;100.00;101720.41;2080770;28;20250;-61
2023/07/10 01:34:44;;;;;;;3.77;3.00;;;;;;;20.30;100.00;101711.97;2080242;28;20295;-61
2023/07/10 01:35:49;;;;;;;5.60;2.87;;;;;;;20.29;100.00;101719.63;2081000;28;20447;-61
2023/07/10 01:36:50;;;;;;;3.90;2.90;;;;;;;20.29;100.00;101727.28;2080690;28;20530;-61
2023/07/10 01:37:50;;;;;;;4.87;2.63;;;;;;;20.23;100.00;101723.56;2080934;28;20447;-61
2023/07/10 01:39:14;;;;;;;3.80;2.73;;;;;;;20.24;100.00;101719.47;2080127;28;20180;-61
2023/07/10 01:40:20;;;;;;;3.47;2.70;;;;;;;19.44;100.00;101609.41;2080719;28;20271;-62
2023/07/10 01:41:21;;;;;;;6.63;3.03;;;;;;;20.16;100.00;101721.84;2080077;28;20712;-61
2023/07/10 01:42:21;;;;;;;5.40;2.80;;;;;;;19.97;100.00;101691.38;2079540;28;20827;-62
2023/07/10 01:43:22;;;;;;;6.90;2.90;;;;;;;19.76;100.00;101667.03;2080751;28;20181;-61
2023/07/10 01:44:27;;;;;;;4.87;2.90;;;;;;;19.83;100.00;101681.53;2080515;28;20315;-61
2023/07/10 01:45:27;;;;;;;6.37;3.13;;;;;;;20.08;100.00;101715.00;2080693;28;20459;-61
2023/07/10 01:46:28;;;;;;;3.60;2.90;;;;;;;19.90;100.00;101695.28;2080810;28;20467;-62
2023/07/10 01:47:28;;;;;;;5.93;2.90;;;;;;;20.04;100.00;101713.53;2080800;28;20234;-62
2023/07/10 01:48:29;;;;;;;6.47;3.53;;;;;;;20.05;100.00;101717.94;2080505;28;20279;-61
2023/07/10 01:49:41;;;;;;;7.40;3.10;;;;;;;19.75;100.00;101683.09;2079442;28;20199;-61
2023/07/10 01:50:41;;;;;;;9.80;4.03;;;;;;;19.98;100.00;101718.25;2080717;28;20658;-61
2023/07/10 01:51:42;;;;;;;8.37;3.27;;;;;;;19.95;100.00;101719.22;2080422;28;20945;-62
2023/07/10 01:52:42;;;;;;;9.80;3.13;;;;;;;19.53;100.00;101667.66;2080660;28;20196;-62
2023/07/10 01:53:45;;;;;;;8.77;3.70;;;;;;;19.71;100.00;101701.41;2080662;28;20295;-61
2023/07/10 01:54:46;;;;;;;7.37;3.60;;;;;;;19.87;100.00;101726.38;2078987;28;20177;-64
2023/07/10 01:55:47;;;;;;;5.10;2.97;;;;;;;19.85;100.00;101729.66;2072874;28;20432;-64
2023/07/10 01:56:47;;;;;;;4.50;3.10;;;;;;;19.84;100.00;101719.66;2080802;28;20454;-64
2023/07/10 01:57:48;;;;;;;7.67;3.60;;;;;;;19.84;100.00;101728.09;2073037;28;20276;-64
2023/07/10 01:58:48;;;;;;;4.87;3.33;;;;;;;19.85;100.00;101728.91;2078401;28;20238;-64
2023/07/10 01:59:50;;;;;;;5.47;3.17;;;;;;;19.89;100.00;101730.28;2080775;28;20271;-62
2023/07/10 02:00:50;;;;;;;7.97;3.40;;;;;;;19.88;100.00;101730.75;2080682;28;20236;-61
2023/07/10 02:01:53;;;;;;;4.70;2.93;;;;;;;19.62;100.00;101690.16;2076862;28;20425;-61
2023/07/10 02:02:54;;;;;;;5.70;3.10;;;;;;;19.91;100.00;101730.59;2074712;28;20174;-61
2023/07/10 02:03:54;;;;;;;5.40;3.20;;;;;;;19.92;100.00;101731.38;2080172;28;20933;-62
2023/07/10 02:04:55;;;;;;;7.33;3.50;;;;;;;19.93;100.00;101730.94;2080477;28;20176;-62
2023/07/10 02:05:55;;;;;;;5.73;3.10;;;;;;;19.90;100.00;101728.28;2080957;28;20216;-62
2023/07/10 02:06:56;;;;;;;6.77;3.40;;;;;;;19.89;100.00;101732.31;2080648;28;20223;-61
2023/07/10 02:07:56;;;;;;;8.00;3.60;;;;;;;19.90;100.00;101728.28;2080720;28;20650;-61
2023/07/10 02:08:57;;;;;;;12.30;4.23;;;;;;;19.42;100.00;101656.09;2079990;28;20200;-62
2023/07/10 02:09:57;;;;;;;11.47;4.07;;;;;;;19.62;100.00;101692.97;2080447;28;20191;-62
2023/07/10 02:10:58;;;;;;;13.57;4.70;;;;;;;19.95;100.00;101728.41;2080685;28;20279;-62
2023/07/10 02:11:59;;;;;;;11.77;3.80;;;;;;;20.00;100.00;101735.47;2080334;28;20577;-61
2023/07/10 02:13:00;;;;;;;11.33;4.10;;;;;;;19.56;100.00;101664.69;2080457;28;20180;-62
2023/07/10 02:14:02;;;;;;;10.03;3.80;;;;;;;20.01;100.00;101742.66;2080614;28;20188;-61
2023/07/10 02:15:03;;;;;;;8.20;3.67;;;;;;;20.00;100.00;101744.66;2074149;28;20247;-62
2023/07/10 02:16:04;;;;;;;10.03;2.93;;;;;;;20.03;100.00;101737.31;2079286;28;20500;-62
2023/07/10 02:17:05;;;;;;;8.20;3.47;;;;;;;19.98;100.00;101735.13;2080688;28;20711;-61
2023/07/10 02:18:05;;;;;;;9.17;3.90;;;;;;;19.96;100.00;101735.59;2079986;28;20879;-61
2023/07/10 02:19:07;;;;;;;5.17;3.00;;;;;;;19.62;100.00;101699.38;2080200;28;20185;-61
2023/07/10 02:20:08;;;;;;;8.40;3.50;;;;;;;19.63;100.00;101705.75;2080560;28;20215;-61
2023/07/10 02:21:08;;;;;;;6.53;3.00;;;;;;;19.58;100.00;101710.00;2080493;28;20432;-62
2023/07/10 02:22:09;;;;;;;4.90;3.47;;;;;;;19.70;100.00;101734.34;2079556;28;20208;-61
2023/07/10 02:23:09;;;;;;;6.60;3.20;;;;;;;19.73;100.00;101744.69;2080628;28;20578;-61
2023/07/10 02:24:10;;;;;;;8.73;3.17;;;;;;;19.36;100.00;101686.88;2074829;28;20181;-62
2023/07/10 02:25:10;;;;;;;8.93;3.47;;;;;;;19.74;100.00;101749.06;2076859;28;20284;-61
2023/07/10 02:26:10;;;;;;;6.23;2.80;;;;;;;19.62;100.00;101747.19;2088066;28;20279;-61
2023/07/10 02:27:11;;;;;;;4.73;2.83;;;;;;;19.64;100.00;101753.09;2088240;28;20231;-62
2023/07/10 02:28:11;;;;;;;5.17;2.70;;;;;;;19.62;100.00;101758.44;2080457;28;20169;-62
2023/07/10 02:29:12;;;;;;;5.33;3.20;;;;;;;19.55;100.00;101749.50;2080159;28;20185;-61
2023/07/10 02:30:12;;;;;;;7.93;3.20;;;;;;;18.95;100.00;101675.38;2087859;28;20215;-62
2023/07/10 02:31:13;;;;;;;4.73;3.07;;;;;;;19.42;100.00;101755.28;2088095;28;20266;-62
2023/07/10 02:32:13;;;;;;;6.40;3.20;;;;;;;19.05;100.00;101697.41;2079739;28;20192;-61
2023/07/10 02:33:14;;;;;;;5.90;3.20;;;;;;;19.44;100.00;101758.38;2080489;28;20196;-62
2023/07/10 02:34:14;;;;;;;4.33;3.10;;;;;;;19.47;100.00;101751.84;2080364;28;20275;-61
2023/07/10 02:35:15;;;;;;;3.27;2.97;;;;;;;19.49;100.00;101748.56;2080559;28;20180;-62
2023/07/10 02:36:16;;;;;;;5.73;3.00;;;;;;;18.95;100.00;101678.97;2081537;28;20177;-62
2023/07/10 02:37:16;;;;;;;3.53;3.00;;;;;;;19.13;100.00;101695.84;2082070;28;20560;-62
2023/07/10 02:38:16;;;;;;;3.90;3.30;;;;;;;19.50;100.00;101761.38;2082240;28;20617;-61
2023/07/10 02:39:17;;;;;;;5.37;3.43;;;;;;;19.50;100.00;101761.38;2081720;28;20204;-61
2023/07/10 02:40:17;;;;;;;6.63;3.10;;;;;;;19.39;100.00;101741.38;2082022;28;20189;-61
2023/07/10 02:41:18;;;;;;;7.83;3.20;;;;;;;19.54;100.00;101762.78;2082268;28;20204;-62
2023/07/10 02:42:18;;;;;;;9.90;2.90;;;;;;;19.56;100.00;101757.50;2081487;28;20207;-62
2023/07/10 02:43:19;;;;;;;4.20;3.27;;;;;;;19.56;100.00;101756.69;2082151;28;20220;-61
2023/07/10 02:44:19;;;;;;;4.97;3.13;;;;;;;19.57;100.00;101763.88;2081716;28;20224;-61
2023/07/10 02:45:20;;;;;;;4.97;3.07;;;;;;;19.19;100.00;101730.50;2089015;28;20219;-62
2023/07/10 02:46:20;;;;;;;6.47;3.13;;;;;;;19.46;100.00;101772.78;2081064;28;20681;-62
2023/07/10 02:47:21;;;;;;;7.23;3.30;;;;;;;19.28;100.00;101747.44;2082291;28;20700;-61
2023/07/10 02:48:21;;;;;;;7.63;3.63;;;;;;;19.03;100.00;101704.75;2081937;28;20192;-62
2023/07/10 02:49:22;;;;;;;8.57;3.23;;;;;;;19.29;100.00;101729.31;2081571;28;20192;-62
2023/07/10 02:50:22;;;;;;;5.53;3.10;;;;;;;19.50;100.00;101764.19;2081955;28;20746;-62
2023/07/10 02:51:22;;;;;;;9.50;3.50;;;;;;;19.39;100.00;101750.56;2082052;28;20212;-61
2023/07/10 02:52:23;;;;;;;7.33;3.60;;;;;;;19.52;100.00;101764.50;2081442;28;20193;-62
2023/07/10 02:53:23;;;;;;;7.53;3.90;;;;;;;19.01;100.00;101691.16;2081960;28;20451;-61
2023/07/10 02:54:24;;;;;;;6.97;3.57;;;;;;;19.49;100.00;101771.84;2082153;28;20189;-61
2023/07/10 02:55:24;;;;;;;7.20;3.50;;;;;;;19.50;100.00;101767.75;2082024;28;20267;-61
2023/07/10 02:56:25;;;;;;;6.90;3.20;;;;;;;19.04;100.00;101700.69;2082079;28;20634;-61
2023/07/10 02:57:25;;;;;;;6.33;4.10;;;;;;;18.84;100.00;101672.97;2081914;28;20482;-62
2023/07/10 02:58:26;;;;;;;6.33;3.20;;;;;;;19.47;100.00;101770.72;2081874;28;20242;-62
2023/07/10 02:59:27;;;;;;;6.37;3.50;;;;;;;19.43;100.00;101770.88;2081447;28;20267;-61
2023/07/10 03:00:28;;;;;;;8.53;2.93;;;;;;;18.63;100.00;101659.81;2081563;28;20276;-62
2023/07/10 03:01:28;;;;;;;5.43;3.30;;;;;;;19.38;100.00;101774.31;2080561;28;20427;-61
2023/07/10 03:02:29;;;;;;;7.13;3.33;;;;;;;19.44;100.00;101777.31;2073479;28;20611;-62
2023/07/10 03:03:30;;;;;;;4.13;3.10;;;;;;;19.42;100.00;101779.78;2082083;28;20189;-61
2023/07/10 03:04:30;;;;;;;5.30;3.20;;;;;;;19.07;100.00;101728.63;2081870;28;20208;-61
2023/07/10 03:05:31;;;;;;;6.73;3.73;;;;;;;19.03;100.00;101713.16;2081932;28;20450;-61
2023/07/10 03:06:31;;;;;;;6.23;3.17;;;;;;;19.14;100.00;101733.16;2081767;28;20320;-61
2023/07/10 03:07:32;;;;;;;5.63;3.27;;;;;;;19.46;100.00;101774.78;2081909;28;20309;-62
2023/07/10 03:08:32;;;;;;;6.90;3.10;;;;;;;19.46;100.00;101778.41;2081894;28;20609;-62
2023/07/10 03:09:33;;;;;;;9.77;3.43;;;;;;;19.43;100.00;101772.91;2081332;28;20173;-61
2023/07/10 03:10:33;;;;;;;4.53;2.93;;;;;;;19.38;100.00;101777.13;2081681;28;20189;-62
2023/07/10 03:11:33;;;;;;;5.40;3.20;;;;;;;19.49;100.00;101779.50;2074038;28;20213;-61
2023/07/10 03:12:34;;;;;;;6.23;3.50;;;;;;;19.52;100.00;101784.19;2080628;28;20199;-62
2023/07/10 03:13:34;;;;;;;6.87;3.30;;;;;;;19.51;100.00;101780.59;2075733;28;20177;-61
2023/07/10 03:14:35;;;;;;;7.40;3.00;;;;;;;19.48;100.00;101775.91;2078527;28;20185;-62
2023/07/10 03:15:35;;;;;;;4.00;2.90;;;;;;;19.50;100.00;101781.81;2081607;28;20235;-62
2023/07/10 03:16:35;;;;;;;5.37;3.03;;;;;;;19.50;100.00;101779.00;2081812;28;20639;-61
2023/07/10 03:17:36;;;;;;;5.97;3.10;;;;;;;19.53;100.00;101783.72;2080427;28;20700;-61
2023/07/10 03:18:38;;;;;;;5.27;3.00;;;;;;;19.53;100.00;101780.09;2073526;28;20268;-61
2023/07/10 03:19:38;;;;;;;5.63;3.00;;;;;;;19.58;100.00;101785.13;2082011;28;20196;-61
2023/07/10 03:20:39;;;;;;;5.63;3.33;;;;;;;19.59;100.00;101787.47;2081692;28;20423;-64
2023/07/10 03:21:40;;;;;;;6.43;3.10;;;;;;;19.61;100.00;101782.19;2081394;28;20255;-64
2023/07/10 03:22:40;;;;;;;6.37;3.10;;;;;;;19.59;100.00;101787.47;2081774;28;20454;-64
2023/07/10 03:23:41;;;;;;;5.93;3.33;;;;;;;19.62;100.00;101789.34;2081870;28;20553;-64
2023/07/10 03:24:41;;;;;;;8.73;3.10;;;;;;;19.60;100.00;101791.06;2078598;28;20566;-64
2023/07/10 03:25:41;;;;;;;8.57;3.67;;;;;;;19.59;100.00;101779.03;2075600;28;20739;-64
2023/07/10 03:26:42;;;;;;;8.50;3.30;;;;;;;19.62;100.00;101780.13;2080840;28;20212;-64
2023/07/10 03:27:42;;;;;;;7.77;3.77;;;;;;;19.64;100.00;101788.88;2073749;28;20205;-64
2023/07/10 03:28:43;;;;;;;8.33;3.23;;;;;;;19.67;100.00;101785.13;2072383;28;20205;-64
2023/07/10 03:29:43;;;;;;;6.60;3.50;;;;;;;19.63;100.00;101770.44;2079470;28;20230;-64
2023/07/10 03:30:44;;;;;;;6.03;3.30;;;;;;;19.26;100.00;101718.22;2081747;28;20193;-64
2023/07/10 03:31:44;;;;;;;5.73;3.20;;;;;;;19.19;100.00;101726.94;2076196;28;20686;-64
2023/07/10 03:32:45;;;;;;;6.53;3.50;;;;;;;19.05;100.00;101700.22;2076396;28;20662;-64
2023/07/10 03:33:45;;;;;;;6.33;3.20;;;;;;;19.73;100.00;101784.06;2081579;28;20177;-64
2023/07/10 03:34:47;;;;;;;7.37;3.47;;;;;;;19.77;100.00;101789.53;2081554;28;20261;-64
2023/07/10 03:35:57;;;;;;;7.47;3.80;;;;;;;19.75;100.00;101783.59;2081699;28;20173;-63
2023/07/10 03:36:58;;;;;;;6.70;3.40;;;;;;;19.76;100.00;101780.28;2081665;28;20818;-63
2023/07/10 03:37:58;;;;;;;7.70;3.30;;;;;;;19.78;100.00;101772.19;2081872;28;20431;-63
2023/07/10 03:38:59;;;;;;;12.30;3.43;;;;;;;19.65;100.00;101767.97;2081212;28;20193;-64
2023/07/10 03:40:00;;;;;;;7.53;3.70;;;;;;;19.78;100.00;101777.81;2081851;28;20196;-64
2023/07/10 03:41:00;;;;;;;8.20;3.60;;;;;;;19.83;100.00;101776.41;2078849;28;20500;-64
2023/07/10 03:42:01;;;;;;;6.83;3.27;;;;;;;19.82;100.00;101775.63;2081258;28;20227;-63
2023/07/10 03:43:01;;;;;;;8.00;3.20;;;;;;;19.87;100.00;101772.19;2081485;28;20680;-63
2023/07/10 03:44:02;;;;;;;4.67;2.90;;;;;;;19.36;100.00;101688.88;2078928;28;20185;-64
2023/07/10 03:45:03;;;;;;;7.67;3.40;;;;;;;19.90;100.00;101771.25;2074078;28;20705;-63
2023/07/10 03:46:03;;;;;;;7.43;3.63;;;;;;;19.19;100.00;101656.69;2081874;28;20192;-63
2023/07/10 03:47:04;;;;;;;12.50;4.00;;;;;;;19.71;100.00;101732.34;2081451;28;20346;-64
2023/07/10 03:48:04;;;;;;;11.87;4.07;;;;;;;20.02;100.00;101773.13;2080878;28;20193;-63
2023/07/10 03:49:05;;;;;;;9.93;4.10;;;;;;;19.94;100.00;101759.81;2075360;28;20671;-63
2023/07/10 03:50:06;;;;;;;6.27;3.70;;;;;;;20.00;100.00;101755.91;2077785;28;20864;-63
2023/07/10 03:51:07;;;;;;;5.77;3.60;;;;;;;20.06;100.00;101761.72;2078348;28;20267;-63
2023/07/10 03:52:07;;;;;;;10.07;3.67;;;;;;;20.16;100.00;101774.56;2075179;28;20475;-64
2023/07/10 03:53:08;;;;;;;7.50;3.37;;;;;;;20.17;100.00;101768.44;2080449;28;20192;-64
2023/07/10 03:54:08;;;;;;;8.80;3.10;;;;;;;20.18;100.00;101772.03;2073219;28;20189;-63
2023/07/10 03:55:09;;;;;;;7.83;3.57;;;;;;;20.21;100.00;101771.09;2081753;28;20181;-64
2023/07/10 03:56:09;;;;;;;6.73;3.60;;;;;;;19.67;100.00;101693.13;2074515;28;20268;-61
2023/07/10 03:57:10;;;;;;;9.10;3.73;;;;;;;19.45;100.00;101657.97;2079228;28;20677;-62
2023/07/10 03:58:19;;;;;;;9.03;3.63;;;;;;;20.27;100.00;101778.44;2080892;28;20204;-63
2023/07/10 03:59:19;;;;;;;14.23;4.27;;;;;;;20.29;100.00;101773.13;2080990;28;20287;-63
2023/07/10 04:00:20;;;;;;;8.00;3.53;;;;;;;20.33;100.00;101776.56;2081633;28;20443;-63
2023/07/10 04:01:20;;;;;;;8.37;3.23;;;;;;;20.36;100.00;101769.97;2080867;28;20564;-63
2023/07/10 04:02:20;;;;;;;4.83;3.20;;;;;;;20.39;100.00;101782.31;2080102;28;20213;-64
2023/07/10 04:03:23;;;;;;;4.10;2.80;;;;;;;20.42;100.00;101775.75;2073562;28;20200;-63
2023/07/10 04:04:24;;;;;;;5.80;3.30;;;;;;;20.44;100.00;101782.47;2081655;28;20180;-63
2023/07/10 04:05:24;;;;;;;5.50;3.40;;;;;;;20.47;100.00;101780.75;2081608;28;20446;-64
2023/07/10 04:06:24;;;;;;;5.33;2.90;;;;;;;20.45;100.00;101777.63;2081373;28;20250;-63
2023/07/10 04:07:25;;;;;;;7.73;3.10;;;;;;;20.54;100.00;101778.41;2081569;28;20184;-63
2023/07/10 04:08:28;;;;;;;6.17;3.10;;;;;;;20.56;100.00;101780.72;2081445;28;20173;-63
2023/07/10 04:09:28;;;;;;;5.53;2.87;;;;;;;20.59;100.00;101777.75;2088264;28;20188;-64
2023/07/10 04:10:29;;;;;;;8.03;3.50;;;;;;;20.61;100.00;101780.88;2088918;28;20414;-64
2023/07/10 04:11:29;;;;;;;5.63;2.93;;;;;;;20.64;100.00;101785.56;2081449;28;20646;-63
2023/07/10 04:12:30;;;;;;;6.90;3.40;;;;;;;20.66;100.00;101782.25;2080734;28;20580;-64
2023/07/10 04:13:30;;;;;;;5.40;3.27;;;;;;;20.40;100.00;101745.25;2073507;28;20598;-63
2023/07/10 04:14:36;;;;;;;12.83;4.23;;;;;;;20.73;100.00;101782.69;2080248;28;20649;-64
2023/07/10 04:15:36;;;;;;;12.37;4.37;;;;;;;20.77;100.00;101788.94;2081487;28;20197;-64
2023/07/10 04:16:37;;;;;;;7.87;3.80;;;;;;;20.39;100.00;101723.19;2081158;28;21007;-63
2023/07/10 04:17:37;;;;;;;10.77;3.80;;;;;;;20.72;100.00;101791.66;2081355;28;20287;-64
2023/07/10 04:18:39;;;;;;;12.27;3.73;;;;;;;20.74;100.00;101787.09;2080920;28;20204;-63
2023/07/10 04:19:40;;;;;;;8.27;4.07;;;;;;;20.78;100.00;101790.50;2081447;28;20184;-63
2023/07/10 04:20:42;;;;;;;10.67;4.17;;;;;;;20.83;100.00;101783.47;2081327;28;21070;-64
2023/07/10 04:21:42;;;;;;;12.50;4.10;;;;;;;20.90;100.00;101785.97;2080671;28;20478;-64
2023/07/10 04:22:42;;;;;;;14.57;4.20;;;;;;;20.94;100.00;101783.75;2081447;28;20408;-64
2023/07/10 04:23:43;;;;;;;11.33;3.80;;;;;;;20.51;100.00;101714.56;2081131;28;20196;-63
2023/07/10 04:24:44;;;;;;;14.27;3.73;;;;;;;21.02;100.00;101782.94;2080960;28;20670;-63
2023/07/10 04:25:45;;;;;;;8.90;3.83;;;;;;;21.07;100.00;101776.66;2081259;28;20185;-64
2023/07/10 04:26:45;;;;;;;7.97;3.80;;;;;;;21.12;100.00;101783.66;2076589;28;20209;-63
2023/07/10 04:27:46;;;;;;;10.90;3.90;;;;;;;21.19;100.00;101777.69;2075936;28;20467;-63
2023/07/10 04:28:47;;;;;;;8.53;3.57;;;;;;;21.23;100.00;101773.44;2080747;28;20603;-63
2023/07/10 04:29:48;;;;;;;9.83;4.23;;;;;;;21.29;100.00;101779.97;2081378;28;20192;-63
2023/07/10 04:30:50;;;;;;;5.93;3.40;;;;;;;21.32;100.00;101779.03;2081355;28;20503;-64
2023/07/10 04:31:50;;;;;;;7.83;3.43;;;;;;;21.37;100.00;101780.41;2081019;28;20684;-64
2023/07/10 04:32:50;;;;;;;7.40;3.90;;;;;;;21.40;100.00;101776.63;2081148;28;20813;-64
2023/07/10 04:33:52;;;;;;;9.30;3.90;;;;;;;21.46;100.00;101783.97;2081249;28;20287;-64
2023/07/10 04:34:52;;;;;;;6.40;3.73;;;;;;;21.54;100.00;101784.38;2080984;28;20189;-63
2023/07/10 04:35:55;;;;;;;6.83;3.30;;;;;;;21.22;100.00;101728.78;2081293;28;20471;-63
2023/07/10 04:36:55;;;;;;;14.10;4.27;;;;;;;21.22;100.00;101718.31;2081185;28;20177;-63
2023/07/10 04:37:56;;;;;;;14.23;4.20;;;;;;;21.69;100.00;101783.19;2081085;28;20458;-63
2023/07/10 04:38:56;;;;;;;12.97;4.93;;;;;;;21.72;100.00;101778.63;2080029;28;20196;-64
2023/07/10 04:39:56;;;;;;;23.77;5.03;;;;;;;21.70;100.00;101758.59;2073266;28;20178;-63
2023/07/10 04:41:02;;;;;;;15.53;4.87;;;;;;;21.57;100.00;101747.53;2080287;28;20208;-64
2023/07/10 04:42:03;;;;;;;16.33;4.50;;;;;;;21.85;100.00;101773.53;2080815;28;20173;-63
2023/07/10 04:43:04;;;;;;;16.63;4.50;;;;;;;21.88;100.00;101790.25;2081011;28;20968;-64
2023/07/10 04:44:05;;;;;;;12.70;4.60;;;;;;;21.98;100.00;101791.75;2080158;28;20215;-64